TimeCDT,TemperatureF,Dew PointF,Humidity,Sea Level PressureIn,VisibilityMPH,Wind Direction,Wind SpeedMPH,Gust SpeedMPH,PrecipitationIn,Events,Conditions,WindDirDegrees,DateUTC
12:52 AM,54.0,52.0,93,29.98,10.0,South,4.6,-,N/A,,Clear,180,2012-10-03 05:52:00
1:52 AM,53.1,52.0,96,29.99,6.0,Calm,Calm,-,N/A,,Clear,0,2012-10-03 06:52:00
2:07 AM,53.6,51.8,94,29.99,2.5,South,3.5,-,0.01,,Clear,180,2012-10-03 07:07:00
2:14 AM,53.6,51.8,94,29.99,5.0,South,3.5,-,0.01,,Clear,180,2012-10-03 07:14:00
2:37 AM,51.8,50.0,94,29.99,1.5,Calm,Calm,-,0.01,,Clear,0,2012-10-03 07:37:00
2:52 AM,51.1,50.0,96,29.99,0.8,SE,3.5,-,0.01,,Clear,140,2012-10-03 07:52:00
2:56 AM,51.8,51.8,100,30.00,2.5,Calm,Calm,-,N/A,,Clear,0,2012-10-03 07:56:00
3:03 AM,51.8,51.8,100,30.00,4.0,Calm,Calm,-,N/A,,Clear,0,2012-10-03 08:03:00
3:20 AM,51.8,50.0,94,29.99,1.8,Calm,Calm,-,N/A,,Clear,0,2012-10-03 08:20:00
3:37 AM,50.0,48.2,94,30.00,2.0,SSE,3.5,-,N/A,,Clear,150,2012-10-03 08:37:00
3:45 AM,51.8,50.0,94,30.00,1.5,Calm,Calm,-,N/A,,Clear,0,2012-10-03 08:45:00
3:52 AM,51.1,50.0,96,30.00,2.5,Calm,Calm,-,N/A,,Clear,0,2012-10-03 08:52:00
3:59 AM,51.8,50.0,94,30.00,4.0,Calm,Calm,-,N/A,,Clear,0,2012-10-03 08:59:00
4:09 AM,51.8,50.0,94,30.01,1.8,SSE,3.5,-,N/A,,Clear,150,2012-10-03 09:09:00
4:34 AM,50.0,50.0,100,30.01,2.5,SE,3.5,-,N/A,,Clear,140,2012-10-03 09:34:00
4:46 AM,50.0,50.0,100,30.02,0.8,SE,3.5,-,N/A,,Clear,140,2012-10-03 09:46:00
4:52 AM,51.1,50.0,96,30.02,0.2,Calm,Calm,-,N/A,Fog,Fog,0,2012-10-03 09:52:00
5:29 AM,48.2,48.2,100,30.03,0.2,SSE,3.5,-,N/A,Fog,Fog,150,2012-10-03 10:29:00
5:52 AM,50.0,48.9,96,30.04,0.2,Calm,Calm,-,N/A,Fog,Fog,0,2012-10-03 10:52:00
6:02 AM,50.0,48.2,94,30.05,0.2,SE,3.5,-,N/A,Fog,Fog,140,2012-10-03 11:02:00
6:13 AM,48.2,48.2,100,30.05,0.2,Calm,Calm,-,N/A,Fog,Fog,0,2012-10-03 11:13:00
6:52 AM,48.0,48.0,100,30.05,0.2,SE,3.5,-,N/A,Fog,Fog,140,2012-10-03 11:52:00
7:52 AM,51.1,51.1,100,30.07,0.2,Calm,Calm,-,N/A,Fog,Fog,0,2012-10-03 12:52:00
8:42 AM,53.6,53.6,100,30.09,2.0,SSE,3.5,-,N/A,,Mostly Cloudy,150,2012-10-03 13:42:00
8:47 AM,55.4,53.6,94,30.09,4.0,Calm,Calm,-,N/A,,Scattered Clouds,0,2012-10-03 13:47:00
8:52 AM,55.0,54.0,96,30.09,7.0,Variable,3.5,-,N/A,,Scattered Clouds,0,2012-10-03 13:52:00
9:52 AM,64.0,54.0,70,30.10,10.0,Variable,3.5,-,N/A,,Clear,0,2012-10-03 14:52:00
10:52 AM,69.1,53.1,57,30.10,10.0,SSW,4.6,-,N/A,,Clear,200,2012-10-03 15:52:00
11:52 AM,71.1,52.0,51,30.09,10.0,South,8.1,-,N/A,,Clear,190,2012-10-03 16:52:00
12:52 PM,73.0,48.0,41,30.07,10.0,WSW,6.9,-,N/A,,Clear,240,2012-10-03 17:52:00
1:52 PM,73.9,48.9,41,30.06,10.0,Variable,4.6,-,N/A,,Clear,0,2012-10-03 18:52:00
2:52 PM,73.9,48.9,41,30.06,10.0,SSW,9.2,-,N/A,,Clear,200,2012-10-03 19:52:00
3:52 PM,73.9,51.1,45,30.06,10.0,SW,8.1,-,N/A,,Scattered Clouds,220,2012-10-03 20:52:00
4:52 PM,73.0,51.1,46,30.06,10.0,SSW,6.9,-,N/A,,Partly Cloudy,200,2012-10-03 21:52:00
5:52 PM,71.1,53.1,53,30.08,10.0,SSW,5.8,-,N/A,,Clear,210,2012-10-03 22:52:00
6:52 PM,64.9,54.0,68,30.08,10.0,Calm,Calm,-,N/A,,Clear,0,2012-10-03 23:52:00
7:52 PM,61.0,53.1,75,30.10,10.0,Calm,Calm,-,N/A,,Clear,0,2012-10-04 00:52:00
8:52 PM,60.1,54.0,80,30.12,10.0,Calm,Calm,-,N/A,,Clear,0,2012-10-04 01:52:00
10:52 PM,55.9,54.0,93,30.15,7.0,SE,3.5,-,N/A,,Clear,130,2012-10-04 03:52:00
11:52 PM,55.0,54.0,96,30.16,6.0,SSE,3.5,-,N/A,,Clear,150,2012-10-04 04:52:00